sensor_id;sensor_type;location;lat;lon;timestamp;P1;durP1;ratioP1;P2;durP2;ratioP2
73760;SDS011;69240;43.530;-5.646;2023-04-19T00:00:02;11.80;;;7.32;;
73760;SDS011;69240;43.530;-5.646;2023-04-19T00:02:34;10.75;;;7.65;;
73760;SDS011;69240;43.530;-5.646;2023-04-19T00:05:00;17.75;;;7.43;;
73760;SDS011;69240;43.530;-5.646;2023-04-19T00:07:26;16.48;;;7.20;;
73760;SDS011;69240;43.530;-5.646;2023-04-19T00:09:52;11.55;;;6.78;;
73760;SDS011;69240;43.530;-5.646;2023-04-19T00:12:17;11.27;;;7.38;;
73760;SDS011;69240;43.530;-5.646;2023-04-19T00:14:43;14.25;;;7.00;;
73760;SDS011;69240;43.530;-5.646;2023-04-19T00:17:09;13.20;;;7.18;;
73760;SDS011;69240;43.530;-5.646;2023-04-19T00:19:36;15.40;;;7.78;;
73760;SDS011;69240;43.530;-5.646;2023-04-19T00:22:02;16.25;;;7.25;;
73760;SDS011;69240;43.530;-5.646;2023-04-19T00:24:27;12.43;;;7.40;;
73760;SDS011;69240;43.530;-5.646;2023-04-19T00:26:53;12.88;;;7.30;;
73760;SDS011;69240;43.530;-5.646;2023-04-19T00:29:19;10.90;;;7.13;;
73760;SDS011;69240;43.530;-5.646;2023-04-19T00:31:44;10.95;;;7.82;;
73760;SDS011;69240;43.530;-5.646;2023-04-19T00:34:10;14.85;;;6.93;;
73760;SDS011;69240;43.530;-5.646;2023-04-19T00:36:35;14.48;;;7.15;;
73760;SDS011;69240;43.530;-5.646;2023-04-19T00:39:01;13.05;;;7.00;;
73760;SDS011;69240;43.530;-5.646;2023-04-19T00:41:27;13.85;;;7.15;;
73760;SDS011;69240;43.530;-5.646;2023-04-19T00:43:53;17.15;;;7.38;;
73760;SDS011;69240;43.530;-5.646;2023-04-19T00:46:18;16.08;;;7.82;;
73760;SDS011;69240;43.530;-5.646;2023-04-19T00:48:44;12.27;;;7.28;;
73760;SDS011;69240;43.530;-5.646;2023-04-19T00:51:10;13.10;;;8.18;;
73760;SDS011;69240;43.530;-5.646;2023-04-19T00:53:36;13.05;;;7.00;;
73760;SDS011;69240;43.530;-5.646;2023-04-19T00:56:02;14.57;;;7.10;;
73760;SDS011;69240;43.530;-5.646;2023-04-19T00:58:29;13.93;;;7.30;;
73760;SDS011;69240;43.530;-5.646;2023-04-19T01:00:56;20.50;;;8.30;;
73760;SDS011;69240;43.530;-5.646;2023-04-19T01:03:21;13.80;;;7.60;;
73760;SDS011;69240;43.530;-5.646;2023-04-19T01:05:47;13.10;;;6.95;;
73760;SDS011;69240;43.530;-5.646;2023-04-19T01:08:13;15.70;;;8.30;;
73760;SDS011;69240;43.530;-5.646;2023-04-19T01:10:40;11.73;;;7.10;;
73760;SDS011;69240;43.530;-5.646;2023-04-19T01:13:06;13.90;;;7.18;;
73760;SDS011;69240;43.530;-5.646;2023-04-19T01:15:31;12.95;;;6.97;;
73760;SDS011;69240;43.530;-5.646;2023-04-19T01:17:57;11.65;;;7.40;;
73760;SDS011;69240;43.530;-5.646;2023-04-19T01:20:22;13.52;;;7.30;;
73760;SDS011;69240;43.530;-5.646;2023-04-19T01:22:48;14.75;;;7.88;;
73760;SDS011;69240;43.530;-5.646;2023-04-19T01:25:14;13.70;;;7.28;;
73760;SDS011;69240;43.530;-5.646;2023-04-19T01:27:40;12.68;;;7.65;;
73760;SDS011;69240;43.530;-5.646;2023-04-19T01:30:05;14.65;;;7.53;;
73760;SDS011;69240;43.530;-5.646;2023-04-19T01:32:31;9.95;;;6.90;;
73760;SDS011;69240;43.530;-5.646;2023-04-19T01:34:57;21.50;;;8.73;;
73760;SDS011;69240;43.530;-5.646;2023-04-19T01:37:22;13.50;;;7.50;;
73760;SDS011;69240;43.530;-5.646;2023-04-19T01:39:48;14.07;;;8.35;;
73760;SDS011;69240;43.530;-5.646;2023-04-19T01:42:13;16.52;;;7.80;;
73760;SDS011;69240;43.530;-5.646;2023-04-19T01:44:39;13.30;;;8.00;;
73760;SDS011;69240;43.530;-5.646;2023-04-19T01:47:05;11.68;;;8.00;;
73760;SDS011;69240;43.530;-5.646;2023-04-19T01:49:30;16.13;;;8.30;;
73760;SDS011;69240;43.530;-5.646;2023-04-19T01:51:56;13.07;;;7.22;;
73760;SDS011;69240;43.530;-5.646;2023-04-19T01:54:21;9.25;;;6.93;;
73760;SDS011;69240;43.530;-5.646;2023-04-19T01:56:47;18.52;;;7.93;;
73760;SDS011;69240;43.530;-5.646;2023-04-19T01:59:12;13.68;;;8.52;;
73760;SDS011;69240;43.530;-5.646;2023-04-19T02:01:38;14.68;;;8.45;;
73760;SDS011;69240;43.530;-5.646;2023-04-19T02:04:03;12.57;;;7.43;;
73760;SDS011;69240;43.530;-5.646;2023-04-19T02:06:28;15.05;;;8.00;;
73760;SDS011;69240;43.530;-5.646;2023-04-19T02:08:55;15.85;;;8.57;;
73760;SDS011;69240;43.530;-5.646;2023-04-19T02:11:21;12.75;;;8.07;;
73760;SDS011;69240;43.530;-5.646;2023-04-19T02:13:46;12.85;;;8.00;;
73760;SDS011;69240;43.530;-5.646;2023-04-19T02:16:12;15.75;;;8.60;;
73760;SDS011;69240;43.530;-5.646;2023-04-19T02:18:37;12.70;;;7.30;;
73760;SDS011;69240;43.530;-5.646;2023-04-19T02:21:06;13.05;;;7.88;;
73760;SDS011;69240;43.530;-5.646;2023-04-19T02:23:33;12.27;;;7.35;;
73760;SDS011;69240;43.530;-5.646;2023-04-19T02:25:59;10.85;;;7.45;;
73760;SDS011;69240;43.530;-5.646;2023-04-19T02:28:29;20.02;;;8.32;;
73760;SDS011;69240;43.530;-5.646;2023-04-19T02:30:55;12.90;;;8.10;;
73760;SDS011;69240;43.530;-5.646;2023-04-19T02:33:21;10.93;;;7.65;;
73760;SDS011;69240;43.530;-5.646;2023-04-19T02:35:47;13.07;;;8.82;;
73760;SDS011;69240;43.530;-5.646;2023-04-19T02:38:12;14.75;;;7.80;;
73760;SDS011;69240;43.530;-5.646;2023-04-19T02:40:38;14.40;;;7.82;;
73760;SDS011;69240;43.530;-5.646;2023-04-19T02:43:03;17.88;;;8.70;;
73760;SDS011;69240;43.530;-5.646;2023-04-19T02:45:29;13.38;;;8.10;;
73760;SDS011;69240;43.530;-5.646;2023-04-19T02:47:54;19.77;;;9.70;;
73760;SDS011;69240;43.530;-5.646;2023-04-19T02:50:20;14.35;;;8.50;;
73760;SDS011;69240;43.530;-5.646;2023-04-19T02:52:45;13.77;;;8.05;;
73760;SDS011;69240;43.530;-5.646;2023-04-19T02:55:11;14.23;;;8.48;;
73760;SDS011;69240;43.530;-5.646;2023-04-19T02:57:36;16.77;;;8.82;;
73760;SDS011;69240;43.530;-5.646;2023-04-19T03:00:02;15.27;;;9.40;;
73760;SDS011;69240;43.530;-5.646;2023-04-19T03:02:29;16.50;;;9.75;;
73760;SDS011;69240;43.530;-5.646;2023-04-19T03:04:55;16.42;;;8.88;;
73760;SDS011;69240;43.530;-5.646;2023-04-19T03:07:20;11.80;;;8.68;;
73760;SDS011;69240;43.530;-5.646;2023-04-19T03:09:46;17.08;;;9.13;;
73760;SDS011;69240;43.530;-5.646;2023-04-19T03:12:12;13.73;;;9.20;;
73760;SDS011;69240;43.530;-5.646;2023-04-19T03:14:37;13.20;;;8.55;;
73760;SDS011;69240;43.530;-5.646;2023-04-19T03:17:03;13.75;;;8.52;;
73760;SDS011;69240;43.530;-5.646;2023-04-19T03:19:28;13.30;;;9.15;;
73760;SDS011;69240;43.530;-5.646;2023-04-19T03:21:54;17.60;;;8.90;;
73760;SDS011;69240;43.530;-5.646;2023-04-19T03:24:29;12.90;;;8.57;;
73760;SDS011;69240;43.530;-5.646;2023-04-19T03:26:55;12.05;;;8.07;;
73760;SDS011;69240;43.530;-5.646;2023-04-19T03:29:21;16.33;;;9.30;;
73760;SDS011;69240;43.530;-5.646;2023-04-19T03:31:47;17.20;;;9.82;;
73760;SDS011;69240;43.530;-5.646;2023-04-19T03:34:13;16.48;;;10.70;;
73760;SDS011;69240;43.530;-5.646;2023-04-19T03:36:38;15.85;;;10.60;;
73760;SDS011;69240;43.530;-5.646;2023-04-19T03:39:05;19.92;;;11.40;;
73760;SDS011;69240;43.530;-5.646;2023-04-19T03:41:31;21.77;;;11.10;;
73760;SDS011;69240;43.530;-5.646;2023-04-19T03:43:57;17.83;;;9.90;;
73760;SDS011;69240;43.530;-5.646;2023-04-19T03:46:23;14.50;;;8.90;;
73760;SDS011;69240;43.530;-5.646;2023-04-19T03:48:49;16.98;;;10.43;;
73760;SDS011;69240;43.530;-5.646;2023-04-19T03:51:15;20.75;;;9.48;;
73760;SDS011;69240;43.530;-5.646;2023-04-19T03:53:41;19.02;;;10.65;;
73760;SDS011;69240;43.530;-5.646;2023-04-19T03:56:07;14.98;;;9.82;;
73760;SDS011;69240;43.530;-5.646;2023-04-19T03:58:32;14.93;;;9.82;;
73760;SDS011;69240;43.530;-5.646;2023-04-19T04:00:58;14.15;;;9.25;;
73760;SDS011;69240;43.530;-5.646;2023-04-19T04:03:24;17.73;;;9.60;;
73760;SDS011;69240;43.530;-5.646;2023-04-19T04:05:50;14.10;;;9.57;;
73760;SDS011;69240;43.530;-5.646;2023-04-19T04:08:15;18.48;;;10.75;;
73760;SDS011;69240;43.530;-5.646;2023-04-19T04:10:41;16.38;;;10.55;;
73760;SDS011;69240;43.530;-5.646;2023-04-19T04:13:06;16.65;;;11.02;;
73760;SDS011;69240;43.530;-5.646;2023-04-19T04:15:32;15.52;;;10.50;;
73760;SDS011;69240;43.530;-5.646;2023-04-19T04:17:57;14.65;;;10.35;;
73760;SDS011;69240;43.530;-5.646;2023-04-19T04:20:23;16.35;;;10.57;;
73760;SDS011;69240;43.530;-5.646;2023-04-19T04:22:48;15.77;;;10.63;;
73760;SDS011;69240;43.530;-5.646;2023-04-19T04:25:14;16.42;;;10.02;;
73760;SDS011;69240;43.530;-5.646;2023-04-19T04:27:40;16.55;;;10.60;;
73760;SDS011;69240;43.530;-5.646;2023-04-19T04:30:08;13.88;;;9.65;;
73760;SDS011;69240;43.530;-5.646;2023-04-19T04:32:35;14.82;;;10.45;;
73760;SDS011;69240;43.530;-5.646;2023-04-19T04:35:05;17.25;;;10.88;;
73760;SDS011;69240;43.530;-5.646;2023-04-19T04:37:32;14.75;;;10.07;;
73760;SDS011;69240;43.530;-5.646;2023-04-19T04:40:00;15.32;;;9.85;;
73760;SDS011;69240;43.530;-5.646;2023-04-19T04:42:29;16.92;;;10.65;;
73760;SDS011;69240;43.530;-5.646;2023-04-19T04:44:55;17.92;;;10.75;;
73760;SDS011;69240;43.530;-5.646;2023-04-19T04:47:22;16.40;;;10.60;;
73760;SDS011;69240;43.530;-5.646;2023-04-19T04:49:47;20.05;;;10.32;;
73760;SDS011;69240;43.530;-5.646;2023-04-19T04:52:13;16.65;;;10.43;;
73760;SDS011;69240;43.530;-5.646;2023-04-19T04:54:39;15.43;;;10.52;;
73760;SDS011;69240;43.530;-5.646;2023-04-19T04:57:04;13.85;;;9.05;;
73760;SDS011;69240;43.530;-5.646;2023-04-19T04:59:29;14.70;;;10.27;;
73760;SDS011;69240;43.530;-5.646;2023-04-19T05:01:55;14.13;;;9.80;;
73760;SDS011;69240;43.530;-5.646;2023-04-19T05:04:20;13.10;;;9.75;;
73760;SDS011;69240;43.530;-5.646;2023-04-19T05:06:46;15.50;;;10.05;;
73760;SDS011;69240;43.530;-5.646;2023-04-19T05:09:11;13.80;;;9.88;;
73760;SDS011;69240;43.530;-5.646;2023-04-19T05:11:37;13.00;;;9.45;;
73760;SDS011;69240;43.530;-5.646;2023-04-19T05:14:03;13.80;;;9.77;;
73760;SDS011;69240;43.530;-5.646;2023-04-19T05:16:28;15.68;;;9.85;;
73760;SDS011;69240;43.530;-5.646;2023-04-19T05:18:54;14.00;;;10.25;;
73760;SDS011;69240;43.530;-5.646;2023-04-19T05:21:20;13.10;;;9.85;;
73760;SDS011;69240;43.530;-5.646;2023-04-19T05:23:46;15.20;;;10.15;;
73760;SDS011;69240;43.530;-5.646;2023-04-19T05:26:12;14.45;;;10.63;;
73760;SDS011;69240;43.530;-5.646;2023-04-19T05:28:39;13.52;;;9.70;;
73760;SDS011;69240;43.530;-5.646;2023-04-19T05:31:09;14.35;;;10.07;;
73760;SDS011;69240;43.530;-5.646;2023-04-19T05:33:35;14.63;;;10.02;;
73760;SDS011;69240;43.530;-5.646;2023-04-19T05:39:23;14.00;;;9.80;;
73760;SDS011;69240;43.530;-5.646;2023-04-19T05:41:48;17.15;;;10.82;;
73760;SDS011;69240;43.530;-5.646;2023-04-19T05:44:14;15.32;;;9.88;;
73760;SDS011;69240;43.530;-5.646;2023-04-19T05:46:39;15.75;;;9.77;;
73760;SDS011;69240;43.530;-5.646;2023-04-19T05:49:05;15.13;;;10.30;;
73760;SDS011;69240;43.530;-5.646;2023-04-19T05:51:31;15.23;;;9.82;;
73760;SDS011;69240;43.530;-5.646;2023-04-19T05:53:56;14.25;;;10.13;;
73760;SDS011;69240;43.530;-5.646;2023-04-19T05:56:22;14.38;;;9.70;;
73760;SDS011;69240;43.530;-5.646;2023-04-19T05:58:47;14.00;;;10.32;;
73760;SDS011;69240;43.530;-5.646;2023-04-19T06:01:13;14.40;;;10.07;;
73760;SDS011;69240;43.530;-5.646;2023-04-19T06:03:38;13.73;;;9.52;;
73760;SDS011;69240;43.530;-5.646;2023-04-19T06:06:04;18.80;;;10.55;;
73760;SDS011;69240;43.530;-5.646;2023-04-19T06:08:30;17.05;;;9.38;;
73760;SDS011;69240;43.530;-5.646;2023-04-19T06:10:55;20.05;;;9.80;;
73760;SDS011;69240;43.530;-5.646;2023-04-19T06:13:21;12.70;;;9.10;;
73760;SDS011;69240;43.530;-5.646;2023-04-19T06:18:52;15.18;;;9.95;;
73760;SDS011;69240;43.530;-5.646;2023-04-19T06:21:18;16.35;;;9.60;;
73760;SDS011;69240;43.530;-5.646;2023-04-19T06:27:05;15.27;;;9.85;;
73760;SDS011;69240;43.530;-5.646;2023-04-19T06:29:31;16.67;;;9.90;;
73760;SDS011;69240;43.530;-5.646;2023-04-19T06:31:56;12.98;;;9.25;;
73760;SDS011;69240;43.530;-5.646;2023-04-19T06:34:22;21.13;;;10.27;;
73760;SDS011;69240;43.530;-5.646;2023-04-19T06:36:47;13.80;;;9.75;;
73760;SDS011;69240;43.530;-5.646;2023-04-19T06:39:13;16.23;;;9.70;;
73760;SDS011;69240;43.530;-5.646;2023-04-19T06:41:39;14.98;;;9.35;;
73760;SDS011;69240;43.530;-5.646;2023-04-19T07:03:14;17.05;;;10.05;;
73760;SDS011;69240;43.530;-5.646;2023-04-19T07:05:39;15.45;;;9.63;;
73760;SDS011;69240;43.530;-5.646;2023-04-19T07:08:06;16.50;;;9.38;;
73760;SDS011;69240;43.530;-5.646;2023-04-19T07:10:32;14.98;;;10.57;;
73760;SDS011;69240;43.530;-5.646;2023-04-19T07:12:57;18.73;;;10.32;;
73760;SDS011;69240;43.530;-5.646;2023-04-19T07:15:23;12.40;;;9.25;;
73760;SDS011;69240;43.530;-5.646;2023-04-19T07:17:48;13.88;;;9.23;;
73760;SDS011;69240;43.530;-5.646;2023-04-19T07:20:14;17.88;;;10.05;;
73760;SDS011;69240;43.530;-5.646;2023-04-19T07:22:40;21.60;;;9.95;;
73760;SDS011;69240;43.530;-5.646;2023-04-19T07:25:05;22.13;;;10.63;;
73760;SDS011;69240;43.530;-5.646;2023-04-19T07:27:31;20.38;;;10.00;;
73760;SDS011;69240;43.530;-5.646;2023-04-19T07:29:57;18.30;;;10.18;;
73760;SDS011;69240;43.530;-5.646;2023-04-19T07:32:22;18.33;;;9.40;;
73760;SDS011;69240;43.530;-5.646;2023-04-19T07:34:48;16.67;;;10.07;;
73760;SDS011;69240;43.530;-5.646;2023-04-19T07:37:15;15.73;;;10.43;;
73760;SDS011;69240;43.530;-5.646;2023-04-19T07:39:41;14.93;;;10.07;;
73760;SDS011;69240;43.530;-5.646;2023-04-19T07:42:06;16.75;;;10.57;;
73760;SDS011;69240;43.530;-5.646;2023-04-19T07:44:32;20.17;;;10.80;;
73760;SDS011;69240;43.530;-5.646;2023-04-19T07:46:57;11.88;;;9.63;;
73760;SDS011;69240;43.530;-5.646;2023-04-19T07:49:23;13.45;;;10.25;;
73760;SDS011;69240;43.530;-5.646;2023-04-19T07:51:48;17.42;;;10.27;;
73760;SDS011;69240;43.530;-5.646;2023-04-19T07:54:14;14.15;;;9.75;;
73760;SDS011;69240;43.530;-5.646;2023-04-19T07:56:44;14.63;;;9.73;;
73760;SDS011;69240;43.530;-5.646;2023-04-19T07:59:10;13.55;;;9.45;;
73760;SDS011;69240;43.530;-5.646;2023-04-19T08:01:35;16.50;;;9.27;;
73760;SDS011;69240;43.530;-5.646;2023-04-19T08:04:01;16.25;;;9.40;;
73760;SDS011;69240;43.530;-5.646;2023-04-19T08:06:26;16.55;;;10.02;;
73760;SDS011;69240;43.530;-5.646;2023-04-19T08:08:54;14.95;;;10.02;;
73760;SDS011;69240;43.530;-5.646;2023-04-19T08:11:19;20.48;;;10.85;;
73760;SDS011;69240;43.530;-5.646;2023-04-19T08:13:45;18.33;;;12.05;;
73760;SDS011;69240;43.530;-5.646;2023-04-19T08:16:11;12.30;;;9.07;;
73760;SDS011;69240;43.530;-5.646;2023-04-19T08:18:36;15.35;;;9.98;;
73760;SDS011;69240;43.530;-5.646;2023-04-19T08:21:02;11.93;;;8.45;;
73760;SDS011;69240;43.530;-5.646;2023-04-19T08:23:28;11.02;;;9.00;;
73760;SDS011;69240;43.530;-5.646;2023-04-19T08:25:53;15.20;;;9.75;;
73760;SDS011;69240;43.530;-5.646;2023-04-19T08:28:19;13.80;;;8.85;;
73760;SDS011;69240;43.530;-5.646;2023-04-19T08:30:45;11.77;;;8.52;;
73760;SDS011;69240;43.530;-5.646;2023-04-19T08:33:10;11.57;;;8.52;;
73760;SDS011;69240;43.530;-5.646;2023-04-19T08:35:36;13.88;;;9.00;;
73760;SDS011;69240;43.530;-5.646;2023-04-19T08:38:03;10.25;;;7.63;;
73760;SDS011;69240;43.530;-5.646;2023-04-19T08:40:31;11.70;;;7.05;;
73760;SDS011;69240;43.530;-5.646;2023-04-19T08:42:57;12.23;;;6.90;;
73760;SDS011;69240;43.530;-5.646;2023-04-19T08:45:24;7.68;;;5.60;;
73760;SDS011;69240;43.530;-5.646;2023-04-19T08:47:51;16.20;;;9.10;;
73760;SDS011;69240;43.530;-5.646;2023-04-19T08:50:19;11.75;;;6.68;;
73760;SDS011;69240;43.530;-5.646;2023-04-19T08:52:45;11.07;;;6.97;;
73760;SDS011;69240;43.530;-5.646;2023-04-19T08:55:11;12.05;;;7.18;;
73760;SDS011;69240;43.530;-5.646;2023-04-19T08:57:37;15.93;;;7.50;;
73760;SDS011;69240;43.530;-5.646;2023-04-19T09:00:02;16.15;;;7.82;;
73760;SDS011;69240;43.530;-5.646;2023-04-19T09:03:06;13.38;;;7.43;;
73760;SDS011;69240;43.530;-5.646;2023-04-19T09:05:25;18.23;;;8.02;;
73760;SDS011;69240;43.530;-5.646;2023-04-19T09:07:50;12.52;;;7.07;;
73760;SDS011;69240;43.530;-5.646;2023-04-19T09:10:17;12.63;;;6.90;;
73760;SDS011;69240;43.530;-5.646;2023-04-19T09:12:58;9.88;;;6.35;;
73760;SDS011;69240;43.530;-5.646;2023-04-19T09:15:35;15.73;;;7.63;;
73760;SDS011;69240;43.530;-5.646;2023-04-19T09:18:07;12.07;;;7.07;;
73760;SDS011;69240;43.530;-5.646;2023-04-19T09:20:41;14.65;;;7.53;;
73760;SDS011;69240;43.530;-5.646;2023-04-19T09:23:09;22.30;;;7.55;;
73760;SDS011;69240;43.530;-5.646;2023-04-19T09:25:37;11.60;;;6.90;;
73760;SDS011;69240;43.530;-5.646;2023-04-19T09:28:10;13.57;;;6.85;;
73760;SDS011;69240;43.530;-5.646;2023-04-19T09:30:37;14.93;;;7.40;;
73760;SDS011;69240;43.530;-5.646;2023-04-19T09:33:03;12.35;;;7.07;;
73760;SDS011;69240;43.530;-5.646;2023-04-19T09:35:39;11.57;;;7.00;;
73760;SDS011;69240;43.530;-5.646;2023-04-19T09:38:05;14.88;;;7.05;;
73760;SDS011;69240;43.530;-5.646;2023-04-19T11:07:51;9.20;;;5.60;;
73760;SDS011;69240;43.530;-5.646;2023-04-19T11:34:03;10.35;;;5.97;;
73760;SDS011;69240;43.530;-5.646;2023-04-19T11:36:32;13.85;;;5.10;;
73760;SDS011;69240;43.530;-5.646;2023-04-19T11:39:00;12.65;;;5.95;;
73760;SDS011;69240;43.530;-5.646;2023-04-19T11:41:29;14.45;;;6.68;;
73760;SDS011;69240;43.530;-5.646;2023-04-19T11:43:54;12.82;;;5.82;;
73760;SDS011;69240;43.530;-5.646;2023-04-19T11:46:20;10.63;;;5.20;;
73760;SDS011;69240;43.530;-5.646;2023-04-19T11:48:52;12.63;;;5.60;;
73760;SDS011;69240;43.530;-5.646;2023-04-19T11:51:18;13.73;;;5.60;;
73760;SDS011;69240;43.530;-5.646;2023-04-19T11:53:44;10.80;;;5.70;;
73760;SDS011;69240;43.530;-5.646;2023-04-19T11:56:10;12.40;;;5.60;;
73760;SDS011;69240;43.530;-5.646;2023-04-19T11:58:43;14.18;;;5.80;;
73760;SDS011;69240;43.530;-5.646;2023-04-19T12:01:18;12.80;;;6.05;;
73760;SDS011;69240;43.530;-5.646;2023-04-19T12:03:46;8.25;;;5.60;;
73760;SDS011;69240;43.530;-5.646;2023-04-19T12:06:12;11.82;;;5.53;;
73760;SDS011;69240;43.530;-5.646;2023-04-19T12:08:46;12.68;;;5.55;;
73760;SDS011;69240;43.530;-5.646;2023-04-19T12:11:13;8.60;;;5.25;;
73760;SDS011;69240;43.530;-5.646;2023-04-19T12:13:40;8.77;;;5.10;;
73760;SDS011;69240;43.530;-5.646;2023-04-19T12:16:06;11.52;;;5.53;;
73760;SDS011;69240;43.530;-5.646;2023-04-19T12:18:48;11.07;;;5.80;;
73760;SDS011;69240;43.530;-5.646;2023-04-19T12:21:30;12.80;;;5.38;;
73760;SDS011;69240;43.530;-5.646;2023-04-19T12:23:57;10.27;;;5.43;;
73760;SDS011;69240;43.530;-5.646;2023-04-19T12:26:25;11.75;;;5.45;;
73760;SDS011;69240;43.530;-5.646;2023-04-19T12:28:52;10.48;;;6.18;;
73760;SDS011;69240;43.530;-5.646;2023-04-19T12:31:18;10.35;;;5.50;;
73760;SDS011;69240;43.530;-5.646;2023-04-19T12:33:45;11.48;;;5.78;;
73760;SDS011;69240;43.530;-5.646;2023-04-19T12:36:11;10.90;;;5.63;;
73760;SDS011;69240;43.530;-5.646;2023-04-19T12:38:36;7.00;;;5.10;;
73760;SDS011;69240;43.530;-5.646;2023-04-19T12:41:02;9.48;;;5.40;;
73760;SDS011;69240;43.530;-5.646;2023-04-19T12:43:28;10.77;;;6.32;;
73760;SDS011;69240;43.530;-5.646;2023-04-19T12:45:56;12.18;;;6.10;;
73760;SDS011;69240;43.530;-5.646;2023-04-19T12:48:23;11.23;;;6.13;;
73760;SDS011;69240;43.530;-5.646;2023-04-19T12:50:49;11.48;;;6.30;;
73760;SDS011;69240;43.530;-5.646;2023-04-19T12:53:14;9.68;;;5.70;;
73760;SDS011;69240;43.530;-5.646;2023-04-19T12:55:40;8.43;;;6.03;;
73760;SDS011;69240;43.530;-5.646;2023-04-19T12:58:06;9.43;;;5.78;;
73760;SDS011;69240;43.530;-5.646;2023-04-19T13:00:31;10.50;;;5.95;;
73760;SDS011;69240;43.530;-5.646;2023-04-19T13:02:57;12.30;;;6.30;;
73760;SDS011;69240;43.530;-5.646;2023-04-19T13:05:23;16.38;;;6.72;;
73760;SDS011;69240;43.530;-5.646;2023-04-19T13:07:48;14.48;;;6.43;;
73760;SDS011;69240;43.530;-5.646;2023-04-19T13:10:14;13.85;;;6.78;;
73760;SDS011;69240;43.530;-5.646;2023-04-19T13:12:39;13.20;;;6.63;;
73760;SDS011;69240;43.530;-5.646;2023-04-19T13:15:05;12.10;;;6.57;;
73760;SDS011;69240;43.530;-5.646;2023-04-19T13:17:31;14.27;;;6.22;;
73760;SDS011;69240;43.530;-5.646;2023-04-19T13:19:57;11.18;;;5.90;;
73760;SDS011;69240;43.530;-5.646;2023-04-19T13:22:22;11.95;;;6.20;;
73760;SDS011;69240;43.530;-5.646;2023-04-19T13:24:48;14.43;;;6.40;;
73760;SDS011;69240;43.530;-5.646;2023-04-19T13:27:13;15.13;;;6.28;;
73760;SDS011;69240;43.530;-5.646;2023-04-19T13:29:40;14.80;;;6.28;;
73760;SDS011;69240;43.530;-5.646;2023-04-19T13:32:05;11.75;;;6.03;;
73760;SDS011;69240;43.530;-5.646;2023-04-19T13:34:31;12.73;;;6.28;;
73760;SDS011;69240;43.530;-5.646;2023-04-19T13:36:57;13.13;;;6.70;;
73760;SDS011;69240;43.530;-5.646;2023-04-19T13:39:23;10.38;;;5.80;;
73760;SDS011;69240;43.530;-5.646;2023-04-19T13:41:49;12.35;;;5.95;;
73760;SDS011;69240;43.530;-5.646;2023-04-19T13:47:26;11.10;;;5.25;;
73760;SDS011;69240;43.530;-5.646;2023-04-19T18:47:13;15.02;;;8.52;;
73760;SDS011;69240;43.530;-5.646;2023-04-19T18:49:39;16.92;;;8.70;;
73760;SDS011;69240;43.530;-5.646;2023-04-19T18:59:03;17.08;;;8.60;;
73760;SDS011;69240;43.530;-5.646;2023-04-19T19:01:29;19.95;;;8.95;;
73760;SDS011;69240;43.530;-5.646;2023-04-19T19:03:57;21.58;;;9.27;;
73760;SDS011;69240;43.530;-5.646;2023-04-19T19:06:22;20.80;;;8.73;;
73760;SDS011;69240;43.530;-5.646;2023-04-19T19:08:48;30.92;;;8.52;;
73760;SDS011;69240;43.530;-5.646;2023-04-19T19:11:14;22.83;;;8.77;;
73760;SDS011;69240;43.530;-5.646;2023-04-19T19:13:40;22.83;;;9.43;;
73760;SDS011;69240;43.530;-5.646;2023-04-19T19:16:05;26.60;;;9.07;;
73760;SDS011;69240;43.530;-5.646;2023-04-19T19:18:31;20.75;;;9.52;;
73760;SDS011;69240;43.530;-5.646;2023-04-19T19:20:57;25.00;;;9.70;;
73760;SDS011;69240;43.530;-5.646;2023-04-19T19:23:24;18.05;;;8.70;;
73760;SDS011;69240;43.530;-5.646;2023-04-19T19:25:49;16.38;;;7.88;;
73760;SDS011;69240;43.530;-5.646;2023-04-19T19:28:15;23.08;;;8.65;;
73760;SDS011;69240;43.530;-5.646;2023-04-19T19:30:42;25.70;;;8.77;;
73760;SDS011;69240;43.530;-5.646;2023-04-19T19:33:09;24.30;;;9.52;;
73760;SDS011;69240;43.530;-5.646;2023-04-19T19:35:37;26.25;;;9.30;;
73760;SDS011;69240;43.530;-5.646;2023-04-19T19:38:02;22.50;;;9.07;;
73760;SDS011;69240;43.530;-5.646;2023-04-19T19:40:28;26.60;;;9.43;;
73760;SDS011;69240;43.530;-5.646;2023-04-19T19:42:53;21.85;;;8.90;;
73760;SDS011;69240;43.530;-5.646;2023-04-19T19:45:19;23.73;;;9.02;;
73760;SDS011;69240;43.530;-5.646;2023-04-19T19:47:45;25.20;;;8.77;;
73760;SDS011;69240;43.530;-5.646;2023-04-19T19:50:10;24.05;;;10.70;;
73760;SDS011;69240;43.530;-5.646;2023-04-19T19:52:38;27.83;;;9.40;;
73760;SDS011;69240;43.530;-5.646;2023-04-19T19:55:03;21.00;;;9.10;;
73760;SDS011;69240;43.530;-5.646;2023-04-19T19:57:30;23.70;;;9.80;;
73760;SDS011;69240;43.530;-5.646;2023-04-19T19:59:56;22.05;;;8.60;;
73760;SDS011;69240;43.530;-5.646;2023-04-19T20:02:22;16.90;;;8.85;;
73760;SDS011;69240;43.530;-5.646;2023-04-19T20:04:48;29.23;;;10.43;;
73760;SDS011;69240;43.530;-5.646;2023-04-19T20:07:14;22.52;;;10.20;;
73760;SDS011;69240;43.530;-5.646;2023-04-19T20:09:40;23.58;;;9.23;;
73760;SDS011;69240;43.530;-5.646;2023-04-19T20:12:05;20.33;;;8.88;;
73760;SDS011;69240;43.530;-5.646;2023-04-19T20:14:34;17.98;;;9.93;;
73760;SDS011;69240;43.530;-5.646;2023-04-19T20:17:00;22.38;;;9.63;;
73760;SDS011;69240;43.530;-5.646;2023-04-19T20:19:27;15.10;;;8.68;;
73760;SDS011;69240;43.530;-5.646;2023-04-19T20:21:52;23.83;;;10.18;;
73760;SDS011;69240;43.530;-5.646;2023-04-19T20:24:18;23.00;;;10.73;;
73760;SDS011;69240;43.530;-5.646;2023-04-19T20:26:45;18.13;;;9.45;;
73760;SDS011;69240;43.530;-5.646;2023-04-19T20:29:12;18.58;;;9.75;;
73760;SDS011;69240;43.530;-5.646;2023-04-19T20:31:38;20.33;;;9.95;;
73760;SDS011;69240;43.530;-5.646;2023-04-19T20:34:04;22.85;;;10.52;;
73760;SDS011;69240;43.530;-5.646;2023-04-19T20:36:29;21.63;;;10.93;;
73760;SDS011;69240;43.530;-5.646;2023-04-19T20:38:55;24.38;;;10.85;;
73760;SDS011;69240;43.530;-5.646;2023-04-19T20:41:22;20.35;;;10.43;;
73760;SDS011;69240;43.530;-5.646;2023-04-19T20:43:48;15.90;;;10.10;;
73760;SDS011;69240;43.530;-5.646;2023-04-19T20:46:14;20.92;;;9.80;;
73760;SDS011;69240;43.530;-5.646;2023-04-19T20:48:40;25.48;;;10.65;;
73760;SDS011;69240;43.530;-5.646;2023-04-19T20:51:06;19.13;;;9.60;;
73760;SDS011;69240;43.530;-5.646;2023-04-19T20:53:32;17.60;;;10.13;;
73760;SDS011;69240;43.530;-5.646;2023-04-19T20:55:58;19.20;;;10.18;;
73760;SDS011;69240;43.530;-5.646;2023-04-19T20:58:24;16.30;;;9.43;;
73760;SDS011;69240;43.530;-5.646;2023-04-19T21:00:49;15.93;;;9.05;;
73760;SDS011;69240;43.530;-5.646;2023-04-19T21:03:15;22.90;;;10.23;;
73760;SDS011;69240;43.530;-5.646;2023-04-19T21:05:41;16.92;;;9.75;;
73760;SDS011;69240;43.530;-5.646;2023-04-19T21:08:06;18.65;;;10.93;;
73760;SDS011;69240;43.530;-5.646;2023-04-19T21:10:32;25.55;;;11.45;;
73760;SDS011;69240;43.530;-5.646;2023-04-19T21:12:57;21.85;;;11.65;;
73760;SDS011;69240;43.530;-5.646;2023-04-19T21:15:23;17.70;;;10.77;;
73760;SDS011;69240;43.530;-5.646;2023-04-19T21:17:48;19.55;;;10.57;;
73760;SDS011;69240;43.530;-5.646;2023-04-19T21:20:14;17.98;;;11.13;;
73760;SDS011;69240;43.530;-5.646;2023-04-19T21:22:42;20.35;;;10.50;;
73760;SDS011;69240;43.530;-5.646;2023-04-19T21:25:09;15.80;;;10.02;;
73760;SDS011;69240;43.530;-5.646;2023-04-19T21:27:36;21.63;;;10.73;;
73760;SDS011;69240;43.530;-5.646;2023-04-19T21:30:02;19.45;;;11.45;;
73760;SDS011;69240;43.530;-5.646;2023-04-19T21:32:28;26.17;;;11.32;;
73760;SDS011;69240;43.530;-5.646;2023-04-19T21:34:54;19.92;;;12.15;;
73760;SDS011;69240;43.530;-5.646;2023-04-19T21:37:20;23.73;;;11.30;;
73760;SDS011;69240;43.530;-5.646;2023-04-19T21:39:46;27.42;;;12.20;;